Time;durP1;ratioP1;P1;durP2;ratioP2;P2;SDS_P1;SDS_P2;PMS_P1;PMS_P2;Temp;Humidity;BMP_temperature;BMP_pressure;BME280_temperature;BME280_humidity;BME280_pressure;Samples;Min_cycle;Max_cycle;Signal;HPM_P1;HPM_P2
2023/01/12 00:01:09;;;;;;;2.95;1.55;;;;;;;;;;5051356;28;20021;-40
2023/01/12 00:03:34;;;;;;;4.18;1.92;;;;;;;;;;5050974;28;20140;-41
2023/01/12 00:06:00;;;;;;;4.05;1.98;;;;;;;;;;5051296;28;20590;-41
2023/01/12 00:08:25;;;;;;;3.03;0.98;;;;;;;;;;5051197;28;20037;-40
2023/01/12 00:10:54;;;;;;;4.05;2.30;;;;;;;;;;5051409;28;20033;-41
2023/01/12 00:13:20;;;;;;;5.35;1.95;;;;;;;;;;5051221;28;20043;-39
2023/01/12 00:18:30;;;;;;;3.58;1.58;;;;;;;;;;5051496;28;20028;-40
2023/01/12 00:20:56;;;;;;;2.75;1.98;;;;;;;;;;5051602;28;20102;-40
2023/01/12 00:23:21;;;;;;;9.95;1.55;;;;;;;;;;5051107;28;20479;-41
2023/01/12 00:25:50;;;;;;;1.50;1.27;;;;;;;;;;5051243;28;20367;-40
2023/01/12 00:28:16;;;;;;;6.60;1.95;;;;;;;;;;5051182;28;20068;-41
2023/01/12 00:30:41;;;;;;;4.53;1.77;;;;;;;;;;5050937;28;20106;-41
2023/01/12 00:33:07;;;;;;;3.25;1.73;;;;;;;;;;5051238;28;20033;-41
2023/01/12 00:35:34;;;;;;;4.28;1.73;;;;;;;;;;5050941;28;20016;-40
2023/01/12 00:37:59;;;;;;;1.58;1.30;;;;;;;;;;5051208;28;20041;-41
2023/01/12 00:40:24;;;;;;;5.03;1.98;;;;;;;;;;5051016;28;20421;-41
2023/01/12 00:45:34;;;;;;;2.97;1.50;;;;;;;;;;5050846;28;20055;-40
2023/01/12 00:47:59;;;;;;;3.90;2.15;;;;;;;;;;5050943;28;20530;-41
2023/01/12 00:50:24;;;;;;;6.35;1.73;;;;;;;;;;5050925;28;20043;-41
2023/01/12 00:52:50;;;;;;;3.03;1.55;;;;;;;;;;5050672;28;20025;-41
2023/01/12 00:55:15;;;;;;;6.15;3.70;;;;;;;;;;5050855;28;20094;-41
2023/01/12 00:57:40;;;;;;;2.88;1.50;;;;;;;;;;5049864;28;20029;-41
2023/01/12 01:00:06;;;;;;;2.70;1.67;;;;;;;;;;5050845;28;20037;-41
2023/01/12 01:02:32;;;;;;;8.32;1.45;;;;;;;;;;5050626;28;20053;-40
2023/01/12 01:04:57;;;;;;;4.53;1.60;;;;;;;;;;5050771;28;20084;-41
2023/01/12 01:07:22;;;;;;;6.65;1.85;;;;;;;;;;5050731;28;20045;-41
2023/01/12 01:09:48;;;;;;;2.30;1.70;;;;;;;;;;5049386;28;20029;-41
2023/01/12 01:12:13;;;;;;;1.75;1.27;;;;;;;;;;5053533;28;20407;-41
2023/01/12 01:14:39;;;;;;;1.60;1.30;;;;;;;;;;5054449;28;20775;-41
2023/01/12 01:17:04;;;;;;;4.47;1.63;;;;;;;;;;5054553;28;20458;-40
2023/01/12 01:19:31;;;;;;;2.10;1.60;;;;;;;;;;5054415;28;20017;-41
2023/01/12 01:21:56;;;;;;;4.82;2.17;;;;;;;;;;5053980;28;20507;-41
2023/01/12 01:24:22;;;;;;;1.30;1.17;;;;;;;;;;5054395;28;20064;-41
2023/01/12 01:26:48;;;;;;;1.63;1.33;;;;;;;;;;5053955;28;20117;-41
2023/01/12 01:29:13;;;;;;;2.42;1.42;;;;;;;;;;5054062;28;20068;-40
2023/01/12 01:31:39;;;;;;;5.10;1.40;;;;;;;;;;5052533;28;20048;-41
2023/01/12 01:34:04;;;;;;;1.40;1.08;;;;;;;;;;5054170;28;20036;-41
2023/01/12 01:36:30;;;;;;;2.55;1.88;;;;;;;;;;5053863;28;20135;-41
2023/01/12 01:38:55;;;;;;;4.90;1.83;;;;;;;;;;5052831;28;20040;-40
2023/01/12 01:41:28;;;;;;;1.77;1.05;;;;;;;;;;5054068;28;20410;-40
2023/01/12 01:43:54;;;;;;;2.83;0.60;;;;;;;;;;5053622;28;20025;-41
2023/01/12 01:46:39;;;;;;;1.52;1.05;;;;;;;;;;5053753;28;20028;-41
2023/01/12 01:49:17;;;;;;;2.90;1.05;;;;;;;;;;5049514;28;20047;-42
2023/01/12 01:51:43;;;;;;;2.03;1.70;;;;;;;;;;5053464;28;20040;-41
2023/01/12 01:54:08;;;;;;;2.40;1.45;;;;;;;;;;5053645;28;20036;-41
2023/01/12 01:56:34;;;;;;;3.83;2.05;;;;;;;;;;5053425;28;20476;-41
2023/01/12 01:59:08;;;;;;;4.05;2.30;;;;;;;;;;5052255;28;20029;-41
2023/01/12 02:01:34;;;;;;;5.72;1.98;;;;;;;;;;5053173;28;20045;-40
2023/01/12 02:04:01;;;;;;;2.08;1.40;;;;;;;;;;5053672;28;20053;-41
2023/01/12 02:06:27;;;;;;;3.55;1.88;;;;;;;;;;5053317;28;20075;-41
2023/01/12 02:09:13;;;;;;;3.80;2.17;;;;;;;;;;5053511;28;20043;-41
2023/01/12 02:17:10;;;;;;;3.25;1.48;;;;;;;;;;5053114;28;20533;-40
2023/01/12 02:19:55;;;;;;;4.95;1.98;;;;;;;;;;5053228;28;20056;-41
2023/01/12 02:22:29;;;;;;;4.22;1.73;;;;;;;;;;5053189;28;20048;-40
2023/01/12 02:25:01;;;;;;;1.45;1.35;;;;;;;;;;5052791;28;20369;-41
2023/01/12 02:27:33;;;;;;;4.72;2.15;;;;;;;;;;5053221;28;20044;-41
2023/01/12 02:30:04;;;;;;;1.67;1.30;;;;;;;;;;5053021;28;20120;-41
2023/01/12 02:32:29;;;;;;;3.63;1.77;;;;;;;;;;5052959;28;20099;-40
2023/01/12 02:35:00;;;;;;;3.85;1.65;;;;;;;;;;5052990;28;20060;-41
2023/01/12 02:37:30;;;;;;;3.35;1.40;;;;;;;;;;5052758;28;20060;-40
2023/01/12 02:39:59;;;;;;;1.92;0.88;;;;;;;;;;5052546;28;20044;-41
2023/01/12 02:42:39;;;;;;;1.92;1.40;;;;;;;;;;5052645;28;20484;-40
2023/01/12 02:45:08;;;;;;;3.75;1.52;;;;;;;;;;5052532;28;20482;-41
2023/01/12 02:47:37;;;;;;;4.60;1.45;;;;;;;;;;5052714;28;20057;-40
2023/01/12 02:50:05;;;;;;;2.72;1.35;;;;;;;;;;5052538;28;20041;-40
2023/01/12 02:52:32;;;;;;;4.63;1.85;;;;;;;;;;5051369;28;20055;-41
2023/01/12 02:54:59;;;;;;;2.03;1.52;;;;;;;;;;5052689;28;20033;-40
2023/01/12 02:57:25;;;;;;;3.72;1.83;;;;;;;;;;5051056;28;20388;-40
2023/01/12 02:59:52;;;;;;;5.25;1.75;;;;;;;;;;5052475;28;20036;-40
2023/01/12 03:02:18;;;;;;;2.22;1.23;;;;;;;;;;5052006;28;20140;-40
2023/01/12 03:04:44;;;;;;;2.67;1.08;;;;;;;;;;5052203;28;20498;-40
2023/01/12 03:07:28;;;;;;;1.92;1.00;;;;;;;;;;5052430;28;20032;-41
2023/01/12 03:09:57;;;;;;;4.38;1.42;;;;;;;;;;5052083;28;20036;-41
2023/01/12 03:12:24;;;;;;;2.17;1.60;;;;;;;;;;5052309;28;20485;-41
2023/01/12 03:14:52;;;;;;;2.15;1.33;;;;;;;;;;5052201;28;20025;-40
2023/01/12 03:17:30;;;;;;;2.35;1.38;;;;;;;;;;5052255;28;20044;-41
2023/01/12 03:19:58;;;;;;;3.33;1.58;;;;;;;;;;5052179;28;20227;-40
2023/01/12 03:22:23;;;;;;;2.72;1.85;;;;;;;;;;5052116;28;20013;-41
2023/01/12 03:24:51;;;;;;;3.55;1.48;;;;;;;;;;5051813;28;20071;-40
2023/01/12 03:27:19;;;;;;;3.70;1.88;;;;;;;;;;5051875;28;20028;-41
2023/01/12 03:29:49;;;;;;;4.32;1.73;;;;;;;;;;5051638;28;20079;-41
2023/01/12 03:32:14;;;;;;;1.45;1.23;;;;;;;;;;5051955;28;20040;-41
2023/01/12 03:34:40;;;;;;;4.18;1.48;;;;;;;;;;5051224;28;20399;-41
2023/01/12 03:37:10;;;;;;;3.33;1.80;;;;;;;;;;5051894;28;20025;-41
2023/01/12 03:39:36;;;;;;;1.90;1.38;;;;;;;;;;5051551;28;20112;-41
2023/01/12 03:42:04;;;;;;;6.90;1.55;;;;;;;;;;5051597;28;20159;-41
2023/01/12 03:44:38;;;;;;;2.45;1.45;;;;;;;;;;5051856;28;20029;-40
2023/01/12 03:47:07;;;;;;;2.30;1.40;;;;;;;;;;5051525;28;20028;-40
2023/01/12 03:49:35;;;;;;;3.38;1.35;;;;;;;;;;5051435;28;20060;-41
2023/01/12 03:52:02;;;;;;;1.55;1.27;;;;;;;;;;5051389;28;20037;-40
2023/01/12 03:54:29;;;;;;;1.95;1.23;;;;;;;;;;5051732;28;20029;-41
2023/01/12 03:56:55;;;;;;;4.63;1.10;;;;;;;;;;5051334;28;20076;-41
2023/01/12 03:59:21;;;;;;;1.65;1.52;;;;;;;;;;5051352;28;20479;-40
2023/01/12 04:01:47;;;;;;;7.90;1.25;;;;;;;;;;5051236;28;20491;-40
2023/01/12 04:04:13;;;;;;;2.03;1.10;;;;;;;;;;5051615;28;20365;-41
2023/01/12 04:06:38;;;;;;;4.10;1.40;;;;;;;;;;5049917;28;20043;-40
2023/01/12 04:09:04;;;;;;;2.92;1.27;;;;;;;;;;5051556;28;20075;-41
2023/01/12 04:14:13;;;;;;;1.50;1.30;;;;;;;;;;5051287;28;20553;-41
2023/01/12 04:16:38;;;;;;;1.45;1.23;;;;;;;;;;5051185;28;20020;-41
2023/01/12 04:19:04;;;;;;;3.33;1.35;;;;;;;;;;5051445;28;20399;-40
2023/01/12 04:24:13;;;;;;;2.10;1.55;;;;;;;;;;5051491;28;20021;-40
2023/01/12 04:26:39;;;;;;;6.00;2.25;;;;;;;;;;5051015;28;20434;-40
2023/01/12 04:29:04;;;;;;;1.73;0.90;;;;;;;;;;5051191;28;20021;-40
2023/01/12 04:31:29;;;;;;;1.95;1.20;;;;;;;;;;5051302;28;20032;-41
2023/01/12 04:33:55;;;;;;;2.00;1.25;;;;;;;;;;5050954;28;20025;-41
2023/01/12 04:36:20;;;;;;;1.52;1.00;;;;;;;;;;5051059;28;20060;-41
2023/01/12 04:38:46;;;;;;;3.05;1.30;;;;;;;;;;5050889;28;20033;-41
2023/01/12 04:41:11;;;;;;;5.03;0.90;;;;;;;;;;5051255;28;20079;-41
2023/01/12 04:43:36;;;;;;;2.83;1.50;;;;;;;;;;5050904;28;20029;-40
2023/01/12 04:46:06;;;;;;;2.72;1.42;;;;;;;;;;5052408;28;20094;-41
2023/01/12 04:48:31;;;;;;;1.58;1.05;;;;;;;;;;5054838;28;20060;-41
2023/01/12 04:50:57;;;;;;;3.72;0.98;;;;;;;;;;5054970;28;20479;-41
2023/01/12 04:53:23;;;;;;;1.50;1.20;;;;;;;;;;5054665;28;20064;-40
2023/01/12 04:55:48;;;;;;;1.92;1.52;;;;;;;;;;5054631;28;20017;-41
2023/01/12 04:58:14;;;;;;;2.70;1.33;;;;;;;;;;5053384;28;20028;-41
2023/01/12 05:00:39;;;;;;;4.90;2.13;;;;;;;;;;5054425;28;20074;-41
2023/01/12 05:03:05;;;;;;;4.85;1.60;;;;;;;;;;5054447;28;20052;-40
2023/01/12 05:05:31;;;;;;;3.65;1.77;;;;;;;;;;5054724;28;20380;-40
2023/01/12 05:10:55;;;;;;;2.22;1.55;;;;;;;;;;5054332;28;20036;-41
2023/01/12 05:13:21;;;;;;;4.30;1.88;;;;;;;;;;5054377;28;20078;-40
2023/01/12 05:15:46;;;;;;;1.80;1.15;;;;;;;;;;5054238;28;20029;-41
2023/01/12 05:18:12;;;;;;;4.82;1.75;;;;;;;;;;5054342;28;20032;-41
2023/01/12 05:20:37;;;;;;;1.90;1.40;;;;;;;;;;5054442;28;20036;-41
2023/01/12 05:23:02;;;;;;;3.17;1.50;;;;;;;;;;5054428;28;20468;-41
2023/01/12 05:25:30;;;;;;;2.28;1.15;;;;;;;;;;5054182;28;20017;-41
2023/01/12 05:27:58;;;;;;;2.33;1.30;;;;;;;;;;5052788;28;20523;-40
2023/01/12 05:30:27;;;;;;;2.03;1.30;;;;;;;;;;5053984;28;20505;-41
2023/01/12 05:32:52;;;;;;;2.42;1.25;;;;;;;;;;5053795;28;20094;-41
2023/01/12 05:35:18;;;;;;;1.25;1.13;;;;;;;;;;5053917;28;20029;-41
2023/01/12 05:37:43;;;;;;;1.73;1.38;;;;;;;;;;5053830;28;20040;-41
2023/01/12 05:40:09;;;;;;;3.28;1.75;;;;;;;;;;5054098;28;20028;-41
2023/01/12 05:45:19;;;;;;;1.98;1.73;;;;;;;;;;5053786;28;20098;-41
2023/01/12 05:47:44;;;;;;;4.63;1.50;;;;;;;;;;5053692;28;20052;-41
2023/01/12 05:50:10;;;;;;;5.75;1.77;;;;;;;;;;5053648;28;20505;-41
2023/01/12 05:52:35;;;;;;;2.33;1.65;;;;;;;;;;5053497;28;20480;-41
2023/01/12 05:55:01;;;;;;;2.88;1.38;;;;;;;;;;5053533;28;20052;-41
2023/01/12 05:57:28;;;;;;;3.50;1.52;;;;;;;;;;5051789;28;20051;-41
2023/01/12 05:59:53;;;;;;;1.35;1.10;;;;;;;;;;5053494;28;20021;-40
2023/01/12 06:02:20;;;;;;;2.35;1.70;;;;;;;;;;5053244;28;20376;-40
2023/01/12 06:04:45;;;;;;;4.88;2.20;;;;;;;;;;5053572;28;20029;-41
2023/01/12 06:07:12;;;;;;;2.72;1.10;;;;;;;;;;5053687;28;20377;-41
2023/01/12 06:09:38;;;;;;;2.22;1.38;;;;;;;;;;5053219;28;20029;-41
2023/01/12 06:14:47;;;;;;;1.88;1.38;;;;;;;;;;5053151;28;20029;-41
2023/01/12 06:17:13;;;;;;;5.20;2.55;;;;;;;;;;5053193;28;20071;-41
2023/01/12 06:19:38;;;;;;;2.65;2.45;;;;;;;;;;5053271;28;20032;-41
2023/01/12 06:22:05;;;;;;;4.60;1.48;;;;;;;;;;5053351;28;20651;-41
2023/01/12 06:24:31;;;;;;;1.83;1.65;;;;;;;;;;5053065;28;20441;-42
2023/01/12 06:26:57;;;;;;;5.63;1.75;;;;;;;;;;5052855;28;20028;-41
2023/01/12 06:29:23;;;;;;;2.90;1.55;;;;;;;;;;5053005;28;20025;-40
2023/01/12 06:31:48;;;;;;;4.78;2.13;;;;;;;;;;5052702;28;20036;-41
2023/01/12 06:34:13;;;;;;;2.38;1.58;;;;;;;;;;5052779;28;20412;-42
2023/01/12 06:36:39;;;;;;;4.38;1.33;;;;;;;;;;5052988;28;20032;-41
2023/01/12 06:39:04;;;;;;;2.60;1.58;;;;;;;;;;5052822;28;20643;-41
2023/01/12 06:44:16;;;;;;;4.65;1.45;;;;;;;;;;5052630;28;20395;-41
2023/01/12 06:46:42;;;;;;;1.23;1.08;;;;;;;;;;5052724;28;20025;-40
2023/01/12 06:49:08;;;;;;;2.75;2.25;;;;;;;;;;5052741;28;20029;-41
2023/01/12 06:51:33;;;;;;;3.85;2.38;;;;;;;;;;5052675;28;20037;-40
2023/01/12 06:54:00;;;;;;;3.92;1.92;;;;;;;;;;5052345;28;20040;-40
2023/01/12 06:56:25;;;;;;;3.83;1.55;;;;;;;;;;5052360;28;20025;-41
2023/01/12 06:58:51;;;;;;;3.40;1.10;;;;;;;;;;5052365;28;20021;-40
2023/01/12 07:01:16;;;;;;;2.08;1.23;;;;;;;;;;5052329;28;20017;-42
2023/01/12 07:03:41;;;;;;;3.58;1.80;;;;;;;;;;5052225;28;20029;-40
2023/01/12 07:06:07;;;;;;;2.28;1.33;;;;;;;;;;5052534;28;20078;-40
2023/01/12 07:08:32;;;;;;;2.67;1.40;;;;;;;;;;5051696;28;20033;-41
2023/01/12 07:11:02;;;;;;;3.83;1.50;;;;;;;;;;5052015;28;20017;-40
2023/01/12 07:13:28;;;;;;;1.63;1.45;;;;;;;;;;5052031;28;20029;-41
2023/01/12 07:15:54;;;;;;;4.10;1.88;;;;;;;;;;5052029;28;20032;-41
2023/01/12 07:18:19;;;;;;;3.08;1.92;;;;;;;;;;5051974;28;20033;-40
2023/01/12 07:20:47;;;;;;;2.28;1.27;;;;;;;;;;5084146;28;20382;-40
2023/01/12 07:23:13;;;;;;;2.65;1.30;;;;;;;;;;5051821;28;20037;-40
2023/01/12 07:25:39;;;;;;;1.00;0.90;;;;;;;;;;5051831;28;20517;-40
2023/01/12 07:28:05;;;;;;;5.40;1.48;;;;;;;;;;5052169;28;20036;-40
2023/01/12 07:30:30;;;;;;;3.17;1.27;;;;;;;;;;5051826;28;20363;-41
2023/01/12 07:33:04;;;;;;;4.30;1.70;;;;;;;;;;5051568;28;20048;-40
2023/01/12 07:35:29;;;;;;;3.85;1.70;;;;;;;;;;5051736;28;20159;-40
2023/01/12 07:37:55;;;;;;;2.75;1.00;;;;;;;;;;5050316;28;20115;-40
2023/01/12 07:40:20;;;;;;;3.65;1.40;;;;;;;;;;5051965;28;20029;-40
2023/01/12 07:42:45;;;;;;;4.15;1.90;;;;;;;;;;5051581;28;20108;-40
2023/01/12 07:45:11;;;;;;;1.50;1.33;;;;;;;;;;5051767;28;20479;-40
2023/01/12 07:47:37;;;;;;;5.13;1.60;;;;;;;;;;5051836;28;20352;-40
2023/01/12 07:50:03;;;;;;;1.58;1.33;;;;;;;;;;5051480;28;20364;-40
2023/01/12 07:52:28;;;;;;;1.02;0.90;;;;;;;;;;5051324;28;20028;-40
2023/01/12 07:54:54;;;;;;;2.35;1.40;;;;;;;;;;5051465;28;20399;-41
2023/01/12 07:57:19;;;;;;;2.17;1.13;;;;;;;;;;5052002;28;20025;-40
2023/01/12 07:59:45;;;;;;;1.75;1.13;;;;;;;;;;5051274;28;20037;-40
2023/01/12 08:02:15;;;;;;;1.73;1.30;;;;;;;;;;5051247;28;20041;-40
2023/01/12 08:04:44;;;;;;;1.58;1.00;;;;;;;;;;5051507;28;20040;-40
2023/01/12 08:07:09;;;;;;;2.67;1.52;;;;;;;;;;5051358;28;20032;-41
2023/01/12 08:09:35;;;;;;;0.88;0.88;;;;;;;;;;5051563;28;20029;-40
2023/01/12 08:12:00;;;;;;;1.45;0.93;;;;;;;;;;5051081;28;20068;-41
2023/01/12 08:14:27;;;;;;;3.38;1.20;;;;;;;;;;5051241;28;20044;-40
2023/01/12 08:16:55;;;;;;;1.95;1.75;;;;;;;;;;5051392;28;20029;-40
2023/01/12 08:19:25;;;;;;;1.42;1.33;;;;;;;;;;5051358;28;20423;-40
2023/01/12 08:21:56;;;;;;;2.85;1.25;;;;;;;;;;5055159;28;20039;-41
2023/01/12 08:24:24;;;;;;;2.25;1.08;;;;;;;;;;5055637;28;20028;-40
2023/01/12 08:26:50;;;;;;;1.27;1.17;;;;;;;;;;5055128;28;20356;-40
2023/01/12 08:29:18;;;;;;;3.15;1.10;;;;;;;;;;5055250;28;20112;-40
2023/01/12 08:31:44;;;;;;;1.40;1.13;;;;;;;;;;5054911;28;20108;-41
2023/01/12 08:34:09;;;;;;;2.15;1.05;;;;;;;;;;5055123;28;20111;-41
2023/01/12 08:36:35;;;;;;;9.30;1.83;;;;;;;;;;5055319;28;20029;-41
2023/01/12 08:39:03;;;;;;;1.17;0.98;;;;;;;;;;5054886;28;20083;-41
2023/01/12 08:41:31;;;;;;;1.23;1.10;;;;;;;;;;5055141;28;20029;-41
2023/01/12 08:44:09;;;;;;;5.03;3.47;;;;;;;;;;5054895;28;20070;-40
2023/01/12 08:46:36;;;;;;;2.22;1.05;;;;;;;;;;5054952;28;20665;-40
2023/01/12 08:49:03;;;;;;;2.72;1.90;;;;;;;;;;5054759;28;20096;-40
2023/01/12 08:51:29;;;;;;;1.25;1.15;;;;;;;;;;5054671;28;20040;-40
2023/01/12 08:53:54;;;;;;;4.43;1.45;;;;;;;;;;5054987;28;20013;-41
2023/01/12 08:56:19;;;;;;;7.00;1.00;;;;;;;;;;5054660;28;20044;-40
2023/01/12 08:58:45;;;;;;;1.83;1.70;;;;;;;;;;5054671;28;20009;-41
2023/01/12 09:01:12;;;;;;;1.73;1.05;;;;;;;;;;5054626;28;20041;-41
2023/01/12 09:03:37;;;;;;;2.70;1.80;;;;;;;;;;5054352;28;20057;-41
2023/01/12 09:06:15;;;;;;;2.60;0.90;;;;;;;;;;5054509;28;20036;-40
2023/01/12 09:08:41;;;;;;;3.67;1.23;;;;;;;;;;5054423;28;20035;-42
2023/01/12 09:11:07;;;;;;;1.15;0.90;;;;;;;;;;5054132;28;20028;-41
2023/01/12 09:13:33;;;;;;;3.33;1.50;;;;;;;;;;5054468;28;20029;-41
2023/01/12 09:16:06;;;;;;;1.30;1.17;;;;;;;;;;5054286;28;20513;-41
2023/01/12 09:18:31;;;;;;;3.53;1.30;;;;;;;;;;5054319;28;20025;-41
2023/01/12 09:21:01;;;;;;;3.00;1.63;;;;;;;;;;5054416;28;20024;-41
2023/01/12 09:23:26;;;;;;;4.10;1.52;;;;;;;;;;5054508;28;20457;-41
2023/01/12 09:25:51;;;;;;;2.70;2.08;;;;;;;;;;5054031;28;20025;-41
2023/01/12 09:28:17;;;;;;;7.88;3.17;;;;;;;;;;5054416;28;20029;-41
2023/01/12 09:30:42;;;;;;;3.67;1.88;;;;;;;;;;5053983;28;20024;-41
2023/01/12 09:33:08;;;;;;;5.38;1.45;;;;;;;;;;5053054;28;20052;-40
2023/01/12 09:35:33;;;;;;;4.10;2.10;;;;;;;;;;5053956;28;20075;-40
2023/01/12 09:37:59;;;;;;;4.07;1.80;;;;;;;;;;5053841;28;20033;-40
2023/01/12 09:40:24;;;;;;;1.98;1.52;;;;;;;;;;5053960;28;20025;-41
2023/01/12 09:48:05;;;;;;;1.80;0.93;;;;;;;;;;4994706;28;20041;-38
2023/01/12 09:50:36;;;;;;;1.98;1.58;;;;;;;;;;4994458;28;20029;-41
2023/01/12 09:53:05;;;;;;;2.72;1.27;;;;;;;;;;4994469;28;20476;-41
2023/01/12 09:55:50;;;;;;;2.58;1.50;;;;;;;;;;4994376;28;20109;-41
2023/01/12 09:58:25;;;;;;;1.80;0.90;;;;;;;;;;4994189;28;20034;-41
2023/01/12 10:00:53;;;;;;;2.10;0.80;;;;;;;;;;4994229;28;20030;-41
2023/01/12 10:03:21;;;;;;;2.30;1.27;;;;;;;;;;4994235;28;20022;-41
2023/01/12 10:05:49;;;;;;;2.28;1.05;;;;;;;;;;4994359;28;20080;-41
2023/01/12 10:08:20;;;;;;;2.47;1.63;;;;;;;;;;4994032;28;20022;-39
2023/01/12 10:11:06;;;;;;;2.63;0.98;;;;;;;;;;4992910;28;20037;-38
2023/01/12 10:13:50;;;;;;;2.78;2.00;;;;;;;;;;4982640;28;20078;-38
2023/01/12 10:16:19;;;;;;;1.63;1.08;;;;;;;;;;4994194;28;20034;-38
2023/01/12 10:18:46;;;;;;;3.80;1.52;;;;;;;;;;4993894;28;20033;-38
2023/01/12 10:21:12;;;;;;;6.22;1.63;;;;;;;;;;4993972;28;20026;-38
2023/01/12 10:23:38;;;;;;;1.75;1.23;;;;;;;;;;4994083;28;20090;-39
2023/01/12 10:26:09;;;;;;;1.85;1.08;;;;;;;;;;4993615;28;20535;-38
2023/01/12 10:28:35;;;;;;;1.45;0.90;;;;;;;;;;4993984;28;20052;-38
2023/01/12 10:31:01;;;;;;;1.85;1.60;;;;;;;;;;4993776;28;20018;-38
2023/01/12 10:33:35;;;;;;;2.55;1.25;;;;;;;;;;4993535;28;20518;-38
2023/01/12 10:36:08;;;;;;;1.75;1.52;;;;;;;;;;4993443;28;20029;-39
2023/01/12 10:38:38;;;;;;;3.92;0.93;;;;;;;;;;4993494;28;20609;-39
2023/01/12 10:41:03;;;;;;;2.30;1.58;;;;;;;;;;4993692;28;20052;-39
2023/01/12 10:43:32;;;;;;;1.75;1.30;;;;;;;;;;4992572;28;20101;-39
2023/01/12 10:46:10;;;;;;;3.03;1.33;;;;;;;;;;4993164;28;20104;-39
2023/01/12 10:48:37;;;;;;;3.30;1.70;;;;;;;;;;4992365;28;20057;-39
2023/01/12 10:51:05;;;;;;;0.90;0.90;;;;;;;;;;4993123;28;20592;-39
2023/01/12 10:53:50;;;;;;;6.10;1.55;;;;;;;;;;4993227;28;20042;-38
2023/01/12 10:56:22;;;;;;;1.85;1.23;;;;;;;;;;4992769;28;20043;-38
2023/01/12 10:58:51;;;;;;;4.75;3.13;;;;;;;;;;4993151;28;20022;-39
2023/01/12 11:01:17;;;;;;;1.50;1.05;;;;;;;;;;4991996;28;20034;-39
2023/01/12 11:03:42;;;;;;;1.30;0.95;;;;;;;;;;4993019;28;20088;-40
2023/01/12 11:06:20;;;;;;;2.80;1.98;;;;;;;;;;4993156;28;20026;-38
2023/01/12 11:08:45;;;;;;;2.15;0.95;;;;;;;;;;4992919;28;20495;-38
2023/01/12 11:11:23;;;;;;;1.45;1.13;;;;;;;;;;4992719;28;20030;-39
2023/01/12 11:14:11;;;;;;;4.30;1.05;;;;;;;;;;4992881;28;20069;-39
2023/01/12 11:16:42;;;;;;;1.30;1.20;;;;;;;;;;4992657;28;20035;-38
2023/01/12 11:19:20;;;;;;;1.15;1.08;;;;;;;;;;4992701;28;20030;-39
2023/01/12 11:21:50;;;;;;;0.77;0.68;;;;;;;;;;4992815;28;20034;-39
2023/01/12 11:24:20;;;;;;;3.70;1.25;;;;;;;;;;4992509;28;20064;-40
2023/01/12 11:26:57;;;;;;;1.13;0.95;;;;;;;;;;4992975;28;20403;-39
2023/01/12 11:29:35;;;;;;;3.35;1.25;;;;;;;;;;4992539;28;20030;-39
2023/01/12 11:32:05;;;;;;;2.55;0.90;;;;;;;;;;4992398;28;20176;-39
2023/01/12 11:34:37;;;;;;;1.02;0.80;;;;;;;;;;4992483;28;20034;-39
2023/01/12 11:37:13;;;;;;;2.10;1.10;;;;;;;;;;4992430;28;20038;-39
2023/01/12 11:39:42;;;;;;;0.73;0.73;;;;;;;;;;4992433;28;20483;-38
2023/01/12 11:45:08;;;;;;;3.30;1.10;;;;;;;;;;4992075;28;20042;-39
2023/01/12 11:47:35;;;;;;;2.03;0.63;;;;;;;;;;4992364;28;20141;-39
2023/01/12 11:50:13;;;;;;;1.90;1.30;;;;;;;;;;4992321;28;20030;-39
2023/01/12 11:52:39;;;;;;;1.10;0.82;;;;;;;;;;4992163;28;20057;-39
2023/01/12 11:55:04;;;;;;;1.75;1.17;;;;;;;;;;4992108;28;20097;-38
2023/01/12 11:57:48;;;;;;;1.77;0.73;;;;;;;;;;4992269;28;20134;-39
2023/01/12 12:00:14;;;;;;;1.15;1.05;;;;;;;;;;4992400;28;20126;-39
2023/01/12 12:02:55;;;;;;;0.90;0.68;;;;;;;;;;4992238;28;20508;-40
2023/01/12 12:05:41;;;;;;;2.38;1.00;;;;;;;;;;4992363;28;20105;-39
2023/01/12 12:08:26;;;;;;;1.08;1.08;;;;;;;;;;4961682;28;20038;-39
2023/01/12 12:10:54;;;;;;;1.60;1.08;;;;;;;;;;4992428;28;20038;-39
2023/01/12 12:13:29;;;;;;;2.05;1.10;;;;;;;;;;4991984;28;20052;-39
2023/01/12 12:16:14;;;;;;;1.02;0.75;;;;;;;;;;4992293;28;20030;-39
2023/01/12 12:18:47;;;;;;;1.63;1.40;;;;;;;;;;4990785;28;20064;-38
2023/01/12 12:21:19;;;;;;;2.05;1.10;;;;;;;;;;4991911;28;20026;-39
2023/01/12 12:24:05;;;;;;;1.30;0.83;;;;;;;;;;4992190;28;20439;-39
2023/01/12 12:26:35;;;;;;;0.60;0.60;;;;;;;;;;4992159;28;20030;-38
2023/01/12 12:29:07;;;;;;;1.20;0.95;;;;;;;;;;4992117;28;20030;-38
2023/01/12 12:31:33;;;;;;;1.30;1.05;;;;;;;;;;4991797;28;20034;-39
2023/01/12 12:34:17;;;;;;;1.65;0.70;;;;;;;;;;4991723;28;20033;-39
2023/01/12 12:37:03;;;;;;;2.83;1.15;;;;;;;;;;4992103;28;20040;-39
2023/01/12 12:39:34;;;;;;;0.70;0.68;;;;;;;;;;4991845;28;20118;-39
2023/01/12 12:47:27;;;;;;;4.25;1.45;;;;;;;;;;4992059;28;20404;-39
2023/01/12 12:49:54;;;;;;;1.10;1.00;;;;;;;;;;4991743;28;20042;-40
2023/01/12 12:52:20;;;;;;;2.08;0.93;;;;;;;;;;4991521;28;20488;-39
2023/01/12 12:54:46;;;;;;;1.15;0.85;;;;;;;;;;4991607;28;20072;-39
2023/01/12 12:57:12;;;;;;;2.90;1.45;;;;;;;;;;4991586;28;20117;-39
2023/01/12 12:59:37;;;;;;;1.02;0.85;;;;;;;;;;4991939;28;20110;-39
2023/01/12 13:02:02;;;;;;;1.10;0.63;;;;;;;;;;4990210;28;20043;-39
2023/01/12 13:04:56;;;;;;;10.07;1.52;;;;;;;;;;4991515;28;20026;-39
2023/01/12 13:07:22;;;;;;;2.85;1.08;;;;;;;;;;4990913;28;20099;-39
2023/01/12 13:09:48;;;;;;;1.23;0.82;;;;;;;;;;4995214;28;20018;-39
2023/01/12 13:12:30;;;;;;;1.25;1.10;;;;;;;;;;4995035;28;20080;-39
2023/01/12 13:15:15;;;;;;;0.77;0.68;;;;;;;;;;4995398;28;20038;-39
2023/01/12 13:17:41;;;;;;;2.30;1.00;;;;;;;;;;4995014;28;20038;-39
2023/01/12 13:20:07;;;;;;;0.50;0.50;;;;;;;;;;4995210;28;20022;-39
2023/01/12 13:22:43;;;;;;;1.50;0.98;;;;;;;;;;4994974;28;20049;-39
2023/01/12 13:25:09;;;;;;;1.85;0.70;;;;;;;;;;4994791;28;20027;-39
2023/01/12 13:27:46;;;;;;;2.47;1.17;;;;;;;;;;4993755;28;20025;-39
2023/01/12 13:30:30;;;;;;;1.30;0.93;;;;;;;;;;4994773;28;20117;-39
2023/01/12 13:33:00;;;;;;;3.00;0.93;;;;;;;;;;4994758;28;20407;-39
2023/01/12 13:35:28;;;;;;;6.78;0.85;;;;;;;;;;4994959;28;20050;-40
2023/01/12 13:38:01;;;;;;;1.38;1.13;;;;;;;;;;4994731;28;20041;-39
2023/01/12 13:40:30;;;;;;;0.55;0.55;;;;;;;;;;4994658;28;20073;-39
2023/01/12 13:43:15;;;;;;;1.95;1.20;;;;;;;;;;4994893;28;20060;-39
2023/01/12 13:45:47;;;;;;;3.22;1.02;;;;;;;;;;4994376;28;20042;-39
2023/01/12 13:48:12;;;;;;;0.40;0.40;;;;;;;;;;4994683;28;20153;-39
2023/01/12 13:50:45;;;;;;;1.02;0.60;;;;;;;;;;4994483;28;20101;-39
2023/01/12 13:53:19;;;;;;;1.55;1.02;;;;;;;;;;4994203;28;20042;-38
2023/01/12 13:55:53;;;;;;;4.50;0.93;;;;;;;;;;4994271;28;20049;-39
2023/01/12 13:58:19;;;;;;;3.80;1.52;;;;;;;;;;4992955;28;20498;-38
2023/01/12 14:00:59;;;;;;;1.42;0.93;;;;;;;;;;4994504;28;20026;-38
2023/01/12 14:03:30;;;;;;;1.98;1.08;;;;;;;;;;4994197;28;20054;-38
2023/01/12 14:06:16;;;;;;;1.00;1.00;;;;;;;;;;4994180;28;20611;-39
2023/01/12 14:08:52;;;;;;;2.00;0.70;;;;;;;;;;4983661;28;20073;-38
2023/01/12 14:11:46;;;;;;;3.45;0.82;;;;;;;;;;4993955;28;20030;-38
2023/01/12 14:20:12;;;;;;;5.55;1.58;;;;;;;;;;4994150;28;20108;-39
2023/01/12 14:22:38;;;;;;;1.40;1.10;;;;;;;;;;4993862;28;20050;-39
2023/01/12 14:25:12;;;;;;;2.08;1.20;;;;;;;;;;4994016;28;20028;-40
2023/01/12 14:27:38;;;;;;;1.08;0.98;;;;;;;;;;4994015;28;20061;-42
2023/01/12 14:30:10;;;;;;;1.15;0.93;;;;;;;;;;4993639;28;20072;-41
2023/01/12 14:32:35;;;;;;;1.98;1.00;;;;;;;;;;4993663;28;20176;-41
2023/01/12 14:35:01;;;;;;;2.33;1.38;;;;;;;;;;4993363;28;20101;-39
2023/01/12 14:37:33;;;;;;;1.92;0.80;;;;;;;;;;4993589;28;20034;-38
2023/01/12 14:39:59;;;;;;;2.65;0.85;;;;;;;;;;4992347;28;20031;-39
2023/01/12 14:48:42;;;;;;;1.10;0.70;;;;;;;;;;4993443;28;20440;-38
2023/01/12 14:51:10;;;;;;;1.75;0.85;;;;;;;;;;4932891;29;20043;-39
2023/01/12 14:53:39;;;;;;;3.20;1.00;;;;;;;;;;4983710;28;20050;-39
2023/01/12 14:56:12;;;;;;;2.10;0.80;;;;;;;;;;4993113;28;20046;-39
2023/01/12 14:58:38;;;;;;;2.35;1.10;;;;;;;;;;4993159;28;20041;-39
2023/01/12 15:01:03;;;;;;;1.85;1.25;;;;;;;;;;4993296;28;20031;-38
2023/01/12 15:03:30;;;;;;;1.33;1.13;;;;;;;;;;4993263;28;20502;-39
2023/01/12 15:05:55;;;;;;;1.30;1.20;;;;;;;;;;4993021;28;20141;-38
2023/01/12 15:08:31;;;;;;;1.48;1.38;;;;;;;;;;4992890;28;20094;-38
2023/01/12 15:11:07;;;;;;;1.98;1.38;;;;;;;;;;4992950;28;20554;-39
2023/01/12 15:13:33;;;;;;;0.80;0.80;;;;;;;;;;4992864;28;20034;-39
2023/01/12 15:27:06;;;;;;;1.10;0.60;;;;;;;;;;4992698;28;20539;-39
2023/01/12 15:29:32;;;;;;;1.63;1.27;;;;;;;;;;4992062;28;20059;-39
2023/01/12 15:31:57;;;;;;;0.80;0.38;;;;;;;;;;4992458;28;20042;-38
2023/01/12 15:34:23;;;;;;;0.93;0.90;;;;;;;;;;4992699;28;20026;-39
2023/01/12 15:36:48;;;;;;;2.15;0.60;;;;;;;;;;4992517;28;20034;-39
2023/01/12 15:39:14;;;;;;;1.08;0.77;;;;;;;;;;4991482;28;20032;-38
2023/01/12 15:44:24;;;;;;;0.60;0.60;;;;;;;;;;4992180;28;20572;-39
2023/01/12 15:46:49;;;;;;;0.75;0.50;;;;;;;;;;4992383;28;20105;-38
2023/01/12 15:49:15;;;;;;;0.55;0.50;;;;;;;;;;4992575;28;20039;-38
2023/01/12 15:51:41;;;;;;;2.67;0.68;;;;;;;;;;4992249;28;20073;-39
2023/01/12 15:54:08;;;;;;;2.15;0.73;;;;;;;;;;4992115;28;20092;-39
2023/01/12 15:56:36;;;;;;;5.00;0.85;;;;;;;;;;4992249;28;20030;-39
2023/01/12 15:59:02;;;;;;;1.05;0.95;;;;;;;;;;4992238;28;20030;-38